Time;durP1;ratioP1;P1;durP2;ratioP2;P2;SDS_P1;SDS_P2;PMS_P1;PMS_P2;Temp;Humidity;BMP_temperature;BMP_pressure;BME280_temperature;BME280_humidity;BME280_pressure;Samples;Min_cycle;Max_cycle;Signal;HPM_P1;HPM_P2
2023/11/20 00:00:51;;;;;;;0.50;0.50;;;13.30;98.90;;;;;;4974288;28;20183;-58
2023/11/20 00:03:17;;;;;;;0.30;0.30;;;13.00;99.80;;;;;;4973868;28;20649;-59
2023/11/20 00:05:44;;;;;;;0.60;0.60;;;13.20;99.40;;;;;;4974061;28;20172;-59
2023/11/20 00:08:09;;;;;;;1.43;1.33;;;13.30;98.90;;;;;;4973935;28;20197;-58
2023/11/20 00:10:38;;;;;;;0.40;0.40;;;13.20;98.50;;;;;;4974164;28;20859;-59
2023/11/20 00:13:06;;;;;;;0.30;0.30;;;13.10;98.60;;;;;;4973809;28;20176;-58
2023/11/20 00:15:32;;;;;;;8.70;2.10;;;13.20;98.70;;;;;;4974044;28;20491;-59
2023/11/20 00:17:58;;;;;;;0.73;0.50;;;13.30;98.30;;;;;;4973870;28;20514;-59
2023/11/20 00:20:24;;;;;;;0.30;0.30;;;13.40;97.90;;;;;;4973961;28;20511;-59
2023/11/20 00:22:49;;;;;;;0.40;0.40;;;13.40;97.70;;;;;;4973721;28;20440;-59
2023/11/20 00:25:15;;;;;;;1.23;0.50;;;13.10;97.50;;;;;;4973802;28;20177;-59
2023/11/20 00:27:41;;;;;;;7.67;0.83;;;12.90;97.90;;;;;;4973895;28;20176;-59
2023/11/20 00:30:07;;;;;;;2.07;0.83;;;12.60;98.30;;;;;;4973665;28;20212;-59
2023/11/20 00:32:33;;;;;;;1.17;0.60;;;12.70;98.40;;;;;;4973466;28;20184;-59
2023/11/20 00:34:59;;;;;;;1.97;1.87;;;12.80;98.50;;;;;;4973726;28;20796;-59
2023/11/20 00:37:24;;;;;;;0.40;0.40;;;13.00;98.00;;;;;;4973572;28;20196;-59
2023/11/20 00:39:50;;;;;;;2.30;0.57;;;13.00;97.90;;;;;;4973494;28;20239;-59
2023/11/20 00:42:17;;;;;;;0.50;0.50;;;13.10;97.90;;;;;;4973259;28;20650;-59
2023/11/20 00:44:43;;;;;;;0.50;0.50;;;12.90;97.60;;;;;;4973491;28;20177;-59
2023/11/20 00:47:09;;;;;;;0.60;0.60;;;12.60;98.40;;;;;;4973405;28;20475;-59
2023/11/20 00:49:34;;;;;;;0.40;0.40;;;12.60;98.40;;;;;;4973305;28;20271;-59
2023/11/20 00:52:01;;;;;;;10.93;2.83;;;12.40;98.70;;;;;;4972069;28;20428;-59
2023/11/20 00:54:27;;;;;;;0.87;0.53;;;12.40;99.10;;;;;;4973108;28;20622;-59
2023/11/20 00:56:52;;;;;;;0.70;0.70;;;12.40;99.50;;;;;;4973228;28;20448;-59
2023/11/20 00:59:18;;;;;;;0.50;0.50;;;12.50;99.30;;;;;;4973368;28;20285;-58
2023/11/20 01:01:44;;;;;;;0.63;0.60;;;12.30;98.90;;;;;;4973094;28;20260;-59
2023/11/20 01:04:09;;;;;;;0.90;0.60;;;12.60;98.80;;;;;;4973045;28;20607;-59
2023/11/20 01:06:42;;;;;;;0.40;0.40;;;12.80;98.00;;;;;;4973190;28;20181;-59
2023/11/20 01:09:08;;;;;;;0.40;0.40;;;12.40;98.80;;;;;;4973150;28;20432;-59
2023/11/20 01:11:34;;;;;;;3.03;1.33;;;12.50;99.10;;;;;;4973105;28;20423;-59
2023/11/20 01:14:01;;;;;;;0.50;0.50;;;12.60;99.10;;;;;;4972828;28;20408;-59
2023/11/20 01:16:28;;;;;;;0.50;0.50;;;12.60;99.00;;;;;;4973203;28;20417;-59
2023/11/20 01:18:54;;;;;;;0.50;0.50;;;12.70;98.70;;;;;;4972147;28;20468;-59
2023/11/20 01:21:20;;;;;;;1.37;0.83;;;12.60;98.80;;;;;;4973006;28;20507;-59
2023/11/20 01:23:46;;;;;;;1.40;0.63;;;12.70;98.50;;;;;;4972753;28;20408;-59
2023/11/20 01:26:12;;;;;;;0.60;0.60;;;12.90;98.20;;;;;;4972918;28;20412;-59
2023/11/20 01:28:38;;;;;;;1.13;0.60;;;12.90;98.30;;;;;;4972873;28;20224;-59
2023/11/20 01:31:05;;;;;;;0.40;0.40;;;13.00;97.60;;;;;;4973060;28;20789;-59
2023/11/20 01:33:31;;;;;;;1.13;0.40;;;13.00;97.70;;;;;;4973116;28;20183;-58
2023/11/20 01:35:57;;;;;;;0.30;0.30;;;13.60;97.20;;;;;;4972836;28;20416;-58
2023/11/20 01:38:22;;;;;;;0.30;0.30;;;14.20;95.90;;;;;;4972948;28;20290;-58
2023/11/20 01:40:53;;;;;;;0.50;0.50;;;13.80;96.00;;;;;;4972850;28;20483;-58
2023/11/20 01:43:18;;;;;;;1.10;0.57;;;13.50;96.30;;;;;;4972675;28;20296;-59
2023/11/20 01:45:44;;;;;;;0.60;0.60;;;13.60;96.30;;;;;;4972840;28;20177;-59
2023/11/20 01:48:10;;;;;;;0.50;0.50;;;13.20;96.50;;;;;;4972739;28;20200;-59
2023/11/20 01:50:37;;;;;;;0.60;0.50;;;13.40;96.30;;;;;;4972659;28;20412;-59
2023/11/20 01:53:04;;;;;;;0.60;0.60;;;13.00;96.70;;;;;;4972343;28;20177;-58
2023/11/20 01:55:31;;;;;;;5.60;1.10;;;12.70;97.40;;;;;;4972821;28;20419;-59
2023/11/20 01:57:57;;;;;;;0.80;0.80;;;12.80;97.90;;;;;;4972354;28;20451;-59
2023/11/20 02:00:24;;;;;;;2.30;1.17;;;12.90;97.70;;;;;;4972685;28;20411;-59
2023/11/20 02:02:50;;;;;;;5.33;1.00;;;13.00;97.40;;;;;;4970794;28;20431;-59
2023/11/20 02:05:15;;;;;;;0.97;0.87;;;13.00;97.40;;;;;;4972291;28;20408;-59
2023/11/20 02:07:42;;;;;;;1.00;0.80;;;12.60;97.70;;;;;;4972627;28;20180;-59
2023/11/20 02:10:08;;;;;;;1.13;0.70;;;12.80;97.70;;;;;;4972489;28;20255;-59
2023/11/20 02:12:36;;;;;;;3.60;0.80;;;12.90;97.90;;;;;;4972325;28;20408;-59
2023/11/20 02:15:02;;;;;;;0.30;0.30;;;12.90;98.00;;;;;;4972667;28;20884;-59
2023/11/20 02:17:27;;;;;;;1.40;1.30;;;13.00;97.70;;;;;;4972409;28;20452;-59
2023/11/20 02:19:53;;;;;;;9.93;0.60;;;12.80;97.50;;;;;;4971144;28;20462;-58
2023/11/20 02:22:19;;;;;;;0.40;0.40;;;12.70;97.60;;;;;;4970987;28;20180;-59
2023/11/20 02:24:46;;;;;;;6.10;0.70;;;12.70;97.50;;;;;;4972492;28;20178;-59
2023/11/20 02:27:11;;;;;;;0.40;0.40;;;12.80;97.60;;;;;;4972209;28;20260;-59
2023/11/20 02:29:45;;;;;;;0.77;0.60;;;12.90;97.30;;;;;;4973301;28;20292;-59
2023/11/20 02:32:11;;;;;;;0.50;0.50;;;12.90;96.90;;;;;;4975739;28;20177;-59
2023/11/20 02:34:36;;;;;;;0.90;0.90;;;12.90;96.90;;;;;;4975829;28;20200;-59
2023/11/20 02:37:04;;;;;;;0.43;0.43;;;12.40;97.10;;;;;;4975947;28;20183;-59
2023/11/20 02:39:30;;;;;;;0.40;0.40;;;12.60;97.10;;;;;;4975765;28;20670;-59
2023/11/20 02:41:56;;;;;;;0.40;0.40;;;12.60;97.30;;;;;;4975139;28;20421;-59
2023/11/20 02:44:22;;;;;;;1.47;0.87;;;12.60;97.50;;;;;;4975541;28;20236;-59
2023/11/20 02:46:48;;;;;;;2.30;2.20;;;12.70;97.60;;;;;;4975322;28;20188;-59
2023/11/20 02:49:13;;;;;;;0.40;0.40;;;12.90;97.00;;;;;;4975609;28;20487;-58
2023/11/20 02:51:39;;;;;;;1.03;0.60;;;13.00;96.70;;;;;;4975591;28;20677;-58
2023/11/20 02:54:05;;;;;;;0.77;0.77;;;13.00;96.40;;;;;;4975321;28;20187;-58
2023/11/20 02:56:31;;;;;;;0.50;0.50;;;12.90;96.70;;;;;;4975537;28;20800;-58
2023/11/20 02:58:57;;;;;;;2.10;1.87;;;12.90;96.70;;;;;;4975404;28;20212;-58
2023/11/20 03:01:23;;;;;;;0.50;0.50;;;12.70;96.10;;;;;;4975392;28;20165;-58
2023/11/20 03:03:48;;;;;;;2.30;1.07;;;12.40;97.00;;;;;;4975153;28;20165;-58
2023/11/20 03:06:14;;;;;;;2.80;0.90;;;12.60;97.00;;;;;;4975321;28;20173;-58
2023/11/20 03:08:40;;;;;;;1.30;1.20;;;12.60;96.70;;;;;;4975161;28;20189;-58
2023/11/20 03:11:05;;;;;;;6.77;0.57;;;12.40;96.50;;;;;;4975247;28;20177;-58
2023/11/20 03:13:31;;;;;;;0.47;0.47;;;12.50;96.70;;;;;;4974937;28;20769;-58
2023/11/20 03:15:58;;;;;;;0.50;0.50;;;12.30;96.70;;;;;;4975205;28;20651;-58
2023/11/20 03:18:23;;;;;;;0.30;0.30;;;12.10;97.10;;;;;;4974925;28;20213;-58
2023/11/20 03:20:49;;;;;;;0.50;0.50;;;12.30;96.90;;;;;;4975145;28;20671;-58
2023/11/20 03:23:15;;;;;;;0.50;0.50;;;12.30;96.90;;;;;;4973523;28;20646;-58
2023/11/20 03:25:41;;;;;;;1.77;0.75;;;12.30;96.90;;;;;;4975034;28;20172;-58
2023/11/20 03:28:07;;;;;;;3.60;1.80;;;12.40;96.90;;;;;;4974766;28;20212;-58
2023/11/20 03:30:32;;;;;;;0.70;0.70;;;12.40;96.70;;;;;;5043857;23;20685;-58
2023/11/20 03:32:58;;;;;;;0.70;0.57;;;12.40;96.90;;;;;;4993350;28;20206;-58
2023/11/20 03:35:24;;;;;;;1.05;0.98;;;12.50;96.60;;;;;;4994027;28;20248;-58
2023/11/20 03:37:50;;;;;;;1.70;1.60;;;12.10;96.70;;;;;;4993878;28;20208;-58
2023/11/20 03:40:16;;;;;;;0.60;0.50;;;12.10;97.20;;;;;;4993780;28;20247;-58
2023/11/20 03:42:42;;;;;;;1.40;0.57;;;12.20;97.20;;;;;;4992777;28;20211;-58
2023/11/20 03:45:08;;;;;;;0.40;0.40;;;12.30;97.20;;;;;;4993850;28;20522;-58
2023/11/20 03:47:34;;;;;;;1.50;0.80;;;12.40;97.00;;;;;;4993548;28;20494;-58
2023/11/20 03:50:00;;;;;;;0.70;0.67;;;12.50;96.20;;;;;;4993668;28;20255;-58
2023/11/20 03:52:26;;;;;;;0.77;0.77;;;12.50;96.40;;;;;;4993135;28;20184;-58
2023/11/20 03:54:51;;;;;;;2.50;0.50;;;12.30;96.30;;;;;;4993682;28;20199;-58
2023/11/20 03:57:17;;;;;;;0.43;0.43;;;12.30;96.80;;;;;;4993377;28;20953;-58
2023/11/20 03:59:43;;;;;;;2.00;1.27;;;12.50;96.00;;;;;;4993924;28;20207;-58
2023/11/20 04:02:08;;;;;;;0.30;0.30;;;12.50;96.10;;;;;;4993248;28;20176;-58
2023/11/20 04:04:34;;;;;;;0.60;0.60;;;12.40;96.00;;;;;;4993362;28;20543;-58
2023/11/20 04:07:04;;;;;;;0.50;0.50;;;12.30;96.50;;;;;;4993564;28;20175;-56
2023/11/20 04:09:30;;;;;;;0.70;0.70;;;12.20;96.50;;;;;;4992561;28;20719;-56
2023/11/20 04:12:00;;;;;;;0.70;0.70;;;12.30;96.40;;;;;;4992669;28;20422;-57
2023/11/20 04:14:26;;;;;;;0.77;0.77;;;12.40;96.10;;;;;;4992873;28;20268;-58
2023/11/20 04:16:52;;;;;;;1.60;0.90;;;12.30;95.70;;;;;;4993040;28;20263;-56
2023/11/20 04:19:18;;;;;;;0.40;0.40;;;12.20;96.40;;;;;;4992692;28;20208;-57
2023/11/20 04:21:44;;;;;;;0.40;0.40;;;12.30;96.10;;;;;;5008165;28;20674;-57
2023/11/20 04:24:09;;;;;;;0.47;0.40;;;12.20;95.70;;;;;;4992868;28;20176;-57
2023/11/20 04:26:35;;;;;;;0.47;0.47;;;12.20;96.10;;;;;;4993082;28;20184;-58
2023/11/20 04:29:01;;;;;;;0.60;0.60;;;12.40;96.10;;;;;;4992749;28;20693;-58
2023/11/20 04:31:28;;;;;;;0.88;0.60;;;12.60;95.70;;;;;;4992867;28;20680;-58
2023/11/20 04:33:54;;;;;;;0.50;0.50;;;12.50;95.60;;;;;;4992709;28;20182;-58
2023/11/20 04:36:19;;;;;;;1.70;0.70;;;12.50;95.40;;;;;;4992739;28;20180;-58
2023/11/20 04:38:45;;;;;;;0.87;0.60;;;12.60;95.50;;;;;;4992687;28;20215;-57
2023/11/20 04:41:11;;;;;;;0.67;0.67;;;12.40;95.50;;;;;;4992666;28;20180;-57
2023/11/20 04:43:36;;;;;;;0.60;0.60;;;12.50;95.50;;;;;;4991917;28;20168;-58
2023/11/20 04:46:02;;;;;;;0.50;0.50;;;12.40;95.60;;;;;;4992117;28;20259;-58
2023/11/20 04:48:28;;;;;;;0.63;0.63;;;12.30;95.90;;;;;;4992173;28;20184;-58
2023/11/20 04:50:54;;;;;;;4.93;1.80;;;12.30;95.70;;;;;;4992388;28;20176;-57
2023/11/20 04:53:21;;;;;;;2.00;1.83;;;12.40;95.40;;;;;;4989056;28;20184;-58
2023/11/20 04:55:47;;;;;;;2.35;0.93;;;12.20;95.90;;;;;;4992675;28;20661;-58
2023/11/20 04:58:13;;;;;;;0.73;0.50;;;12.40;95.80;;;;;;5007538;28;20247;-59
2023/11/20 05:00:39;;;;;;;3.00;0.50;;;12.30;95.70;;;;;;4992335;28;20662;-58
2023/11/20 05:03:04;;;;;;;5.95;0.70;;;12.30;95.90;;;;;;4992168;28;20549;-58
2023/11/20 05:05:30;;;;;;;1.57;0.40;;;12.40;95.60;;;;;;4992368;28;20258;-58
2023/11/20 05:07:56;;;;;;;0.85;0.50;;;12.50;95.00;;;;;;4992467;28;20176;-57
2023/11/20 05:10:22;;;;;;;0.70;0.70;;;12.30;95.10;;;;;;4992304;28;20203;-58
2023/11/20 05:12:47;;;;;;;1.20;0.57;;;12.30;95.70;;;;;;4992131;28;20213;-58
2023/11/20 05:15:13;;;;;;;6.80;0.67;;;12.50;95.20;;;;;;4992305;28;20172;-58
2023/11/20 05:17:39;;;;;;;1.33;1.23;;;12.60;95.20;;;;;;4992239;28;20323;-58
2023/11/20 05:20:06;;;;;;;4.13;1.33;;;12.40;95.60;;;;;;4992204;28;20238;-58
2023/11/20 05:22:31;;;;;;;0.47;0.40;;;12.40;95.40;;;;;;4991952;28;20164;-58
2023/11/20 05:24:57;;;;;;;5.57;0.90;;;12.40;95.30;;;;;;4992246;28;20418;-58
2023/11/20 05:27:24;;;;;;;1.52;1.42;;;12.50;95.60;;;;;;4991433;28;20234;-58
2023/11/20 05:29:50;;;;;;;0.50;0.50;;;12.40;95.30;;;;;;4991879;28;20216;-58
2023/11/20 05:32:16;;;;;;;1.03;1.00;;;12.40;95.70;;;;;;4991417;28;20478;-58
2023/11/20 05:34:42;;;;;;;0.57;0.57;;;12.40;95.50;;;;;;4992139;28;20839;-57
2023/11/20 05:37:08;;;;;;;0.95;0.70;;;12.30;95.80;;;;;;4992041;28;20172;-58
2023/11/20 05:39:33;;;;;;;0.90;0.90;;;12.10;95.40;;;;;;4992052;28;20195;-58
2023/11/20 05:41:59;;;;;;;0.40;0.40;;;11.90;95.70;;;;;;4991797;28;20499;-58
2023/11/20 05:44:25;;;;;;;0.43;0.40;;;12.10;95.80;;;;;;4991726;28;20603;-58
2023/11/20 05:46:51;;;;;;;1.17;0.80;;;12.00;95.70;;;;;;4991132;28;20184;-57
2023/11/20 05:49:17;;;;;;;11.25;1.45;;;12.10;96.00;;;;;;4974813;28;20211;-58
2023/11/20 05:51:42;;;;;;;1.43;0.90;;;12.30;95.80;;;;;;4974335;28;20188;-56
2023/11/20 05:54:09;;;;;;;0.50;0.50;;;12.40;95.60;;;;;;4991616;28;20419;-57
2023/11/20 05:56:38;;;;;;;1.35;0.80;;;12.40;95.40;;;;;;4991724;28;20624;-58
2023/11/20 05:59:04;;;;;;;2.95;1.20;;;12.30;95.60;;;;;;4991356;28;20239;-58
2023/11/20 06:01:41;;;;;;;5.28;1.23;;;12.20;95.20;;;;;;4991773;28;20180;-58
2023/11/20 06:04:08;;;;;;;0.80;0.80;;;12.10;95.40;;;;;;4991891;28;20215;-58
2023/11/20 06:06:37;;;;;;;1.25;1.25;;;12.20;95.10;;;;;;4978126;28;20172;-57
2023/11/20 06:09:10;;;;;;;0.52;0.52;;;12.30;95.00;;;;;;4995673;28;20199;-58
2023/11/20 06:11:36;;;;;;;2.15;0.98;;;12.10;95.40;;;;;;4995645;28;20684;-58
2023/11/20 06:14:03;;;;;;;0.50;0.50;;;12.10;95.10;;;;;;4995167;28;20184;-58
2023/11/20 06:16:29;;;;;;;1.05;0.95;;;12.10;95.20;;;;;;5010776;28;20184;-58
2023/11/20 06:18:54;;;;;;;6.28;0.88;;;12.10;95.00;;;;;;4995375;28;20200;-58
2023/11/20 06:21:20;;;;;;;1.60;1.50;;;11.80;95.40;;;;;;4995438;28;20172;-58
2023/11/20 06:23:46;;;;;;;0.50;0.50;;;11.80;95.60;;;;;;4995115;28;20168;-58
2023/11/20 06:26:13;;;;;;;4.20;0.70;;;12.00;95.40;;;;;;4995326;28;20191;-59
2023/11/20 06:28:43;;;;;;;0.57;0.57;;;11.80;94.90;;;;;;4995340;28;20664;-58
2023/11/20 06:31:10;;;;;;;1.52;1.48;;;11.80;95.30;;;;;;4995448;28;20529;-58
2023/11/20 06:33:35;;;;;;;2.67;1.50;;;11.40;95.60;;;;;;4994943;28;20210;-57
2023/11/20 06:36:02;;;;;;;0.50;0.50;;;10.60;96.40;;;;;;4995029;28;20184;-58
2023/11/20 06:38:29;;;;;;;1.45;0.80;;;10.20;97.20;;;;;;4994854;28;20200;-57
2023/11/20 06:40:56;;;;;;;0.40;0.40;;;9.80;98.60;;;;;;4995098;28;20207;-57
2023/11/20 06:43:22;;;;;;;2.67;0.70;;;9.70;99.40;;;;;;4994923;28;20172;-58
2023/11/20 06:45:48;;;;;;;0.68;0.65;;;9.70;99.90;;;;;;4994922;28;20188;-58
2023/11/20 06:48:13;;;;;;;3.07;1.47;;;9.60;99.80;;;;;;4994839;28;20176;-57
2023/11/20 06:50:39;;;;;;;4.00;1.03;;;9.40;99.80;;;;;;4994828;28;20258;-57
2023/11/20 06:53:05;;;;;;;1.70;0.80;;;9.40;99.90;;;;;;4994933;28;20183;-57
2023/11/20 06:55:30;;;;;;;0.50;0.40;;;9.30;99.90;;;;;;4994848;28;20218;-57
2023/11/20 06:57:56;;;;;;;0.83;0.83;;;9.30;99.90;;;;;;4994655;28;20206;-57
2023/11/20 07:00:22;;;;;;;1.70;0.87;;;9.40;99.90;;;;;;5012630;28;20430;-57
2023/11/20 07:02:47;;;;;;;0.97;0.90;;;9.40;99.90;;;;;;4982656;28;20676;-58
2023/11/20 07:05:17;;;;;;;1.20;1.03;;;9.40;99.90;;;;;;4994589;28;20318;-57
2023/11/20 07:07:51;;;;;;;0.80;0.80;;;9.40;99.80;;;;;;4994448;28;20184;-57
2023/11/20 07:10:25;;;;;;;5.97;0.95;;;9.40;99.90;;;;;;4994667;28;20218;-57
2023/11/20 07:12:55;;;;;;;7.20;2.25;;;9.30;99.90;;;;;;4994275;28;20168;-58
2023/11/20 07:15:22;;;;;;;0.98;0.55;;;9.40;99.90;;;;;;4994047;28;20216;-58
2023/11/20 07:17:49;;;;;;;0.55;0.55;;;9.40;99.90;;;;;;4993656;28;20270;-58
2023/11/20 07:20:15;;;;;;;0.38;0.38;;;9.50;99.90;;;;;;4994134;28;20254;-57
2023/11/20 07:22:41;;;;;;;3.85;0.60;;;9.50;99.90;;;;;;4994379;28;20725;-58
2023/11/20 07:25:07;;;;;;;4.07;1.83;;;9.50;99.90;;;;;;4994261;28;20255;-57
2023/11/20 07:27:35;;;;;;;1.48;1.38;;;9.60;99.90;;;;;;4994341;28;20939;-56
2023/11/20 07:30:02;;;;;;;2.17;0.55;;;9.60;99.90;;;;;;4993930;28;20226;-58
2023/11/20 07:32:28;;;;;;;1.52;0.75;;;9.40;99.90;;;;;;4994431;28;20171;-58
2023/11/20 07:34:54;;;;;;;0.40;0.40;;;9.50;99.90;;;;;;4993195;28;20184;-58
2023/11/20 07:37:21;;;;;;;0.60;0.50;;;9.40;99.90;;;;;;4993885;28;20450;-58
2023/11/20 07:39:47;;;;;;;0.30;0.30;;;9.40;99.90;;;;;;4993573;28;20199;-58
2023/11/20 07:42:14;;;;;;;0.60;0.60;;;9.50;99.90;;;;;;4993361;28;20192;-58
2023/11/20 07:44:41;;;;;;;1.45;0.57;;;9.50;99.90;;;;;;4993593;28;20176;-57
2023/11/20 07:47:06;;;;;;;1.48;0.80;;;9.50;99.80;;;;;;4993738;28;20176;-57
2023/11/20 07:49:32;;;;;;;2.53;0.77;;;9.40;99.90;;;;;;4993617;28;20195;-56
2023/11/20 07:51:59;;;;;;;0.57;0.57;;;9.50;99.90;;;;;;4993928;28;20238;-58
2023/11/20 07:54:26;;;;;;;2.65;0.70;;;9.50;99.90;;;;;;4993675;28;20259;-57
2023/11/20 07:56:52;;;;;;;0.50;0.50;;;9.50;99.80;;;;;;4993716;28;20688;-58
2023/11/20 07:59:18;;;;;;;1.48;0.80;;;9.50;99.50;;;;;;5008396;28;20211;-57
2023/11/20 08:01:44;;;;;;;2.33;0.60;;;9.60;99.80;;;;;;4993550;28;20180;-58
2023/11/20 08:04:11;;;;;;;1.53;0.60;;;9.60;99.50;;;;;;4993234;28;20551;-57
2023/11/20 08:06:37;;;;;;;1.02;1.02;;;9.60;99.30;;;;;;4993666;28;20553;-57
2023/11/20 08:09:03;;;;;;;0.73;0.73;;;9.70;99.90;;;;;;4975873;28;20238;-58
2023/11/20 08:11:30;;;;;;;2.53;1.53;;;9.70;99.60;;;;;;5008521;28;20181;-58
2023/11/20 08:13:55;;;;;;;0.60;0.60;;;9.70;99.00;;;;;;4993070;28;20408;-56
2023/11/20 08:16:22;;;;;;;2.87;2.77;;;9.60;99.50;;;;;;4993184;28;20267;-57
2023/11/20 08:18:48;;;;;;;0.50;0.50;;;9.40;99.40;;;;;;4993295;28;20211;-57
2023/11/20 08:21:13;;;;;;;1.23;0.50;;;9.40;99.90;;;;;;4993104;28;20573;-58
2023/11/20 08:23:39;;;;;;;2.43;1.27;;;9.40;99.90;;;;;;4971928;28;20205;-58
2023/11/20 08:26:05;;;;;;;2.20;2.10;;;9.40;99.90;;;;;;4965711;28;20207;-57
2023/11/20 08:28:30;;;;;;;0.50;0.50;;;9.40;99.90;;;;;;4992615;28;20168;-58
2023/11/20 08:30:56;;;;;;;1.07;1.07;;;9.50;99.90;;;;;;4992854;28;20449;-58
2023/11/20 08:33:22;;;;;;;4.13;0.60;;;9.60;99.90;;;;;;4992698;28;20267;-58
2023/11/20 08:35:47;;;;;;;1.33;1.23;;;9.70;99.60;;;;;;4992978;28;20243;-57
2023/11/20 08:38:13;;;;;;;2.40;1.40;;;9.80;99.30;;;;;;4992772;28;20196;-56
2023/11/20 08:40:40;;;;;;;0.50;0.50;;;9.80;99.40;;;;;;4992894;28;20220;-57
2023/11/20 08:43:05;;;;;;;0.50;0.50;;;9.80;98.80;;;;;;4992594;28;20161;-58
2023/11/20 08:45:31;;;;;;;0.40;0.40;;;9.90;98.90;;;;;;4992663;28;20187;-57
2023/11/20 08:47:57;;;;;;;0.60;0.60;;;9.70;98.60;;;;;;4992610;28;20237;-55
2023/11/20 08:50:25;;;;;;;0.40;0.40;;;9.70;99.30;;;;;;4992847;28;20199;-58
2023/11/20 08:52:52;;;;;;;0.55;0.55;;;9.60;99.20;;;;;;4992464;28;20179;-58
2023/11/20 08:55:18;;;;;;;0.45;0.40;;;9.50;99.00;;;;;;4992478;28;20250;-57
2023/11/20 08:57:44;;;;;;;6.43;0.57;;;9.30;99.00;;;;;;4974780;28;20676;-57
2023/11/20 09:00:14;;;;;;;0.50;0.50;;;9.30;99.30;;;;;;4991905;28;20481;-57
2023/11/20 09:02:41;;;;;;;0.77;0.77;;;9.40;98.90;;;;;;4992341;28;20184;-58
2023/11/20 09:05:10;;;;;;;0.40;0.40;;;9.40;98.80;;;;;;4992064;28;20249;-56
2023/11/20 09:07:36;;;;;;;0.98;0.70;;;9.50;98.70;;;;;;4992505;28;20201;-58
2023/11/20 09:10:04;;;;;;;0.70;0.70;;;9.40;98.70;;;;;;5007419;28;20295;-57
2023/11/20 09:12:33;;;;;;;7.80;1.02;;;9.40;98.60;;;;;;4992128;28;20415;-58
2023/11/20 09:14:59;;;;;;;0.98;0.98;;;9.40;99.20;;;;;;4992166;28;20184;-59
2023/11/20 09:17:24;;;;;;;2.00;1.73;;;9.70;98.90;;;;;;4992096;28;20172;-58
2023/11/20 09:19:51;;;;;;;0.70;0.70;;;9.90;98.40;;;;;;4992140;28;20435;-57
2023/11/20 09:22:17;;;;;;;0.65;0.50;;;9.90;97.90;;;;;;4991944;28;20180;-58
2023/11/20 09:24:43;;;;;;;2.83;0.50;;;10.10;97.50;;;;;;4992298;28;20734;-58
2023/11/20 09:27:11;;;;;;;2.83;1.13;;;10.10;96.90;;;;;;4992144;28;20247;-58
2023/11/20 09:29:37;;;;;;;0.40;0.40;;;10.30;97.00;;;;;;4991954;28;20211;-57
2023/11/20 09:32:03;;;;;;;4.13;1.45;;;10.10;96.50;;;;;;4992239;28;20416;-57
2023/11/20 09:34:29;;;;;;;0.40;0.40;;;10.10;96.90;;;;;;4991921;28;20179;-57
2023/11/20 09:36:55;;;;;;;0.67;0.67;;;10.30;96.50;;;;;;4992155;28;20478;-58
2023/11/20 09:39:21;;;;;;;6.03;0.87;;;10.40;96.00;;;;;;4992822;28;20574;-57
2023/11/20 09:41:47;;;;;;;2.13;0.70;;;10.50;96.20;;;;;;4996268;28;20414;-58
2023/11/20 09:44:13;;;;;;;0.50;0.50;;;10.70;96.20;;;;;;4995802;28;20672;-58
2023/11/20 09:46:44;;;;;;;2.00;1.40;;;11.00;96.00;;;;;;4996032;28;20200;-58
2023/11/20 09:49:16;;;;;;;0.60;0.60;;;11.20;95.50;;;;;;4996127;28;20431;-57
2023/11/20 09:51:43;;;;;;;8.60;0.80;;;11.10;95.00;;;;;;4996186;28;20871;-58
2023/11/20 09:54:12;;;;;;;3.33;1.40;;;11.00;95.10;;;;;;4995667;28;20407;-57
2023/11/20 09:56:38;;;;;;;2.00;1.10;;;11.00;94.80;;;;;;4995921;28;20458;-58
2023/11/20 09:59:04;;;;;;;0.87;0.87;;;10.80;94.80;;;;;;5010840;28;20494;-58
2023/11/20 10:01:30;;;;;;;1.10;0.60;;;10.70;94.40;;;;;;4995795;28;20648;-57
2023/11/20 10:03:57;;;;;;;2.97;0.80;;;10.80;94.30;;;;;;4995548;28;20406;-56
2023/11/20 10:06:27;;;;;;;2.43;0.60;;;10.80;94.20;;;;;;4995759;28;20399;-57
2023/11/20 10:08:54;;;;;;;4.40;1.20;;;10.70;94.80;;;;;;4995503;28;20431;-55
2023/11/20 10:11:22;;;;;;;2.40;1.10;;;10.90;95.20;;;;;;4995963;28;20410;-58
2023/11/20 10:13:47;;;;;;;0.40;0.40;;;11.10;95.10;;;;;;4995708;28;20444;-58
2023/11/20 10:16:23;;;;;;;1.90;0.93;;;11.10;94.20;;;;;;4995617;28;20407;-58
2023/11/20 10:18:51;;;;;;;3.70;1.07;;;11.00;94.20;;;;;;4995557;28;20235;-58
2023/11/20 10:21:19;;;;;;;0.40;0.40;;;10.90;94.30;;;;;;4995516;28;20801;-57
2023/11/20 10:23:45;;;;;;;3.50;0.93;;;10.80;94.50;;;;;;4995485;28;20646;-58
2023/11/20 10:26:11;;;;;;;0.77;0.77;;;10.90;94.60;;;;;;4995388;28;20419;-56
2023/11/20 10:28:40;;;;;;;1.27;0.70;;;10.90;93.90;;;;;;4995429;28;20426;-58
2023/11/20 10:31:07;;;;;;;0.45;0.45;;;10.80;94.10;;;;;;4994137;28;20422;-58
2023/11/20 10:33:33;;;;;;;0.77;0.77;;;10.70;94.60;;;;;;4993761;28;20184;-58
2023/11/20 10:36:14;;;;;;;0.30;0.30;;;10.80;94.50;;;;;;4993890;28;20262;-58
2023/11/20 10:38:41;;;;;;;1.67;0.60;;;11.10;94.30;;;;;;4993936;28;20696;-58
2023/11/20 10:41:10;;;;;;;2.50;0.60;;;11.40;93.90;;;;;;4994189;28;20175;-58
2023/11/20 10:43:40;;;;;;;0.70;0.70;;;11.80;93.90;;;;;;4993672;28;20414;-57
2023/11/20 10:46:06;;;;;;;1.50;0.73;;;11.80;93.30;;;;;;5008476;28;20425;-57
2023/11/20 10:48:38;;;;;;;2.63;0.60;;;11.90;93.30;;;;;;4993702;28;20415;-58
2023/11/20 10:51:08;;;;;;;1.03;0.93;;;12.10;92.60;;;;;;4993538;28;20415;-58
2023/11/20 10:53:39;;;;;;;7.50;1.90;;;12.10;92.80;;;;;;4993586;28;20797;-57
2023/11/20 10:56:06;;;;;;;4.53;1.57;;;12.00;92.80;;;;;;4993484;28;20419;-57
2023/11/20 10:58:32;;;;;;;2.00;1.27;;;11.80;92.50;;;;;;4993618;28;20470;-58
2023/11/20 11:00:58;;;;;;;0.50;0.50;;;11.80;93.00;;;;;;4993509;28;20411;-57
2023/11/20 11:03:28;;;;;;;0.50;0.50;;;11.70;92.90;;;;;;4993342;28;20470;-58
2023/11/20 11:05:54;;;;;;;2.20;0.93;;;11.50;93.20;;;;;;4993712;28;20435;-57
2023/11/20 11:08:22;;;;;;;1.23;0.80;;;11.60;93.30;;;;;;4993743;28;20799;-57
2023/11/20 11:10:49;;;;;;;0.80;0.60;;;11.60;93.10;;;;;;4993523;28;20509;-58
2023/11/20 11:13:18;;;;;;;1.70;1.13;;;11.60;93.30;;;;;;4993224;28;20419;-56
2023/11/20 11:15:47;;;;;;;0.40;0.40;;;11.70;92.90;;;;;;4993258;28;20415;-58
2023/11/20 11:18:15;;;;;;;0.60;0.60;;;11.80;92.60;;;;;;4993339;28;20482;-56
2023/11/20 11:20:49;;;;;;;0.67;0.67;;;12.00;93.20;;;;;;4993431;28;20879;-57
2023/11/20 11:23:16;;;;;;;1.60;0.77;;;11.90;92.10;;;;;;4992987;28;20975;-57
2023/11/20 11:25:53;;;;;;;1.23;0.60;;;11.90;92.20;;;;;;4993588;28;20904;-57
2023/11/20 11:28:20;;;;;;;1.57;0.53;;;11.80;92.40;;;;;;4993200;28;20490;-58
2023/11/20 11:30:47;;;;;;;9.13;0.73;;;11.80;92.90;;;;;;4954730;28;1141121;-57
2023/11/20 11:33:27;;;;;;;0.90;0.90;;;11.60;92.70;;;;;;4994585;28;20180;-58
2023/11/20 11:36:31;;;;;;;4.43;1.80;;;11.40;92.80;;;;;;4976604;28;20514;-58
2023/11/20 11:38:59;;;;;;;12.87;1.40;;;11.20;92.90;;;;;;4993225;28;20553;-60
2023/11/20 11:42:13;;;;;;;0.93;0.67;;;11.20;93.20;;;;;;4994010;28;20414;-58
2023/11/20 11:45:03;;;;;;;1.23;0.90;;;10.80;93.10;;;;;;4979988;28;20792;-58
2023/11/20 11:47:29;;;;;;;5.20;1.00;;;10.80;93.70;;;;;;4994308;28;20465;-58
2023/11/20 11:49:56;;;;;;;1.10;0.77;;;10.90;93.40;;;;;;4994435;28;20526;-58
2023/11/20 11:52:26;;;;;;;0.40;0.40;;;11.00;93.30;;;;;;4993910;28;20411;-58
2023/11/20 11:55:15;;;;;;;0.93;0.93;;;11.10;93.30;;;;;;4994117;28;20212;-58
2023/11/20 11:57:48;;;;;;;0.77;0.70;;;11.10;93.00;;;;;;4994030;28;20490;-58
2023/11/20 12:00:21;;;;;;;0.50;0.50;;;10.70;92.80;;;;;;4994000;28;20196;-57
2023/11/20 12:02:54;;;;;;;1.00;0.90;;;10.50;93.30;;;;;;4992825;28;20183;-58
2023/11/20 12:05:20;;;;;;;3.10;0.87;;;10.50;93.40;;;;;;4993793;28;20724;-58
2023/11/20 12:08:01;;;;;;;0.30;0.30;;;10.50;93.60;;;;;;4993706;28;20415;-58
2023/11/20 12:10:49;;;;;;;6.35;1.48;;;10.50;93.70;;;;;;4993714;28;20630;-58
2023/11/20 12:13:16;;;;;;;0.67;0.67;;;10.60;93.60;;;;;;4993336;28;20821;-58
2023/11/20 12:15:47;;;;;;;0.60;0.50;;;10.50;94.70;;;;;;4993740;28;20438;-58
2023/11/20 12:18:32;;;;;;;9.30;0.82;;;10.60;94.70;;;;;;4993252;28;20247;-57
2023/11/20 12:20:59;;;;;;;4.93;1.15;;;10.70;93.90;;;;;;4993145;28;20676;-58
2023/11/20 12:23:32;;;;;;;2.40;0.90;;;10.90;94.40;;;;;;4992960;28;20177;-58
2023/11/20 12:25:59;;;;;;;2.47;1.13;;;11.00;94.10;;;;;;4972494;28;20420;-58
2023/11/20 12:28:27;;;;;;;2.55;2.35;;;11.00;93.60;;;;;;4981394;28;20726;-57
2023/11/20 12:30:56;;;;;;;3.47;2.45;;;11.00;93.70;;;;;;4993177;28;20639;-58
2023/11/20 12:33:23;;;;;;;0.40;0.40;;;10.90;93.60;;;;;;4975663;28;20621;-58
2023/11/20 12:35:53;;;;;;;3.93;0.90;;;10.90;93.80;;;;;;4993316;28;20200;-58
2023/11/20 12:38:19;;;;;;;1.13;0.68;;;10.80;94.10;;;;;;4993243;28;21035;-58
2023/11/20 12:40:53;;;;;;;1.35;0.98;;;10.70;93.80;;;;;;4993271;28;20192;-58
2023/11/20 12:43:19;;;;;;;0.40;0.30;;;10.70;93.80;;;;;;4992784;28;20672;-58
2023/11/20 12:45:46;;;;;;;0.40;0.40;;;10.50;94.10;;;;;;4993067;28;20187;-58
2023/11/20 12:48:11;;;;;;;0.80;0.65;;;10.50;94.70;;;;;;4987159;28;20195;-57